sensor_id;sensor_type;location;lat;lon;timestamp;P1;durP1;ratioP1;P2;durP2;ratioP2
76433;SDS011;65265;53.200;6.080;2023-10-08T00:02:37;0.47;;;0.00;;
76433;SDS011;65265;53.200;6.080;2023-10-08T00:07:31;0.22;;;0.05;;
76433;SDS011;65265;53.200;6.080;2023-10-08T00:12:22;0.98;;;0.15;;
76433;SDS011;65265;53.200;6.080;2023-10-08T00:17:14;2.28;;;0.00;;
76433;SDS011;65265;53.200;6.080;2023-10-08T00:22:07;0.10;;;0.00;;
76433;SDS011;65265;53.200;6.080;2023-10-08T00:27:01;0.63;;;0.00;;
76433;SDS011;65265;53.200;6.080;2023-10-08T00:31:56;4.93;;;0.60;;
76433;SDS011;65265;53.200;6.080;2023-10-08T00:36:48;5.22;;;0.55;;
76433;SDS011;65265;53.200;6.080;2023-10-08T00:41:40;0.20;;;0.00;;
76433;SDS011;65265;53.200;6.080;2023-10-08T00:46:34;1.17;;;0.00;;
76433;SDS011;65265;53.200;6.080;2023-10-08T00:51:29;1.08;;;0.38;;
76433;SDS011;65265;53.200;6.080;2023-10-08T00:56:30;0.77;;;0.10;;
76433;SDS011;65265;53.200;6.080;2023-10-08T01:01:41;0.40;;;0.00;;
76433;SDS011;65265;53.200;6.080;2023-10-08T01:06:41;0.20;;;0.00;;
76433;SDS011;65265;53.200;6.080;2023-10-08T01:11:32;0.08;;;0.00;;
76433;SDS011;65265;53.200;6.080;2023-10-08T01:16:35;2.13;;;0.08;;
76433;SDS011;65265;53.200;6.080;2023-10-08T01:21:31;0.10;;;0.00;;
76433;SDS011;65265;53.200;6.080;2023-10-08T01:26:28;0.52;;;0.10;;
76433;SDS011;65265;53.200;6.080;2023-10-08T01:31:21;1.55;;;0.17;;
76433;SDS011;65265;53.200;6.080;2023-10-08T01:36:13;1.65;;;0.15;;
76433;SDS011;65265;53.200;6.080;2023-10-08T01:41:05;4.63;;;0.00;;
76433;SDS011;65265;53.200;6.080;2023-10-08T01:46:10;1.10;;;0.03;;
76433;SDS011;65265;53.200;6.080;2023-10-08T01:51:02;1.13;;;0.00;;
76433;SDS011;65265;53.200;6.080;2023-10-08T01:55:59;1.52;;;0.00;;
76433;SDS011;65265;53.200;6.080;2023-10-08T02:05:50;0.95;;;0.03;;
76433;SDS011;65265;53.200;6.080;2023-10-08T02:10:43;0.45;;;0.03;;
76433;SDS011;65265;53.200;6.080;2023-10-08T02:15:40;0.20;;;0.00;;
76433;SDS011;65265;53.200;6.080;2023-10-08T02:20:32;0.30;;;0.00;;
76433;SDS011;65265;53.200;6.080;2023-10-08T02:25:26;0.20;;;0.00;;
76433;SDS011;65265;53.200;6.080;2023-10-08T02:30:17;0.20;;;0.00;;
76433;SDS011;65265;53.200;6.080;2023-10-08T02:35:09;0.10;;;0.00;;
76433;SDS011;65265;53.200;6.080;2023-10-08T02:40:03;0.60;;;0.10;;
76433;SDS011;65265;53.200;6.080;2023-10-08T02:45:09;0.90;;;0.00;;
76433;SDS011;65265;53.200;6.080;2023-10-08T02:50:03;0.30;;;0.00;;
76433;SDS011;65265;53.200;6.080;2023-10-08T02:54:58;0.30;;;0.10;;
76433;SDS011;65265;53.200;6.080;2023-10-08T02:59:50;0.20;;;0.00;;
76433;SDS011;65265;53.200;6.080;2023-10-08T03:04:45;0.17;;;0.00;;
76433;SDS011;65265;53.200;6.080;2023-10-08T03:09:37;1.27;;;0.13;;
76433;SDS011;65265;53.200;6.080;2023-10-08T03:14:32;1.30;;;0.20;;
76433;SDS011;65265;53.200;6.080;2023-10-08T03:19:31;0.30;;;0.00;;
76433;SDS011;65265;53.200;6.080;2023-10-08T03:24:27;0.80;;;0.10;;
76433;SDS011;65265;53.200;6.080;2023-10-08T03:29:27;0.75;;;0.03;;
76433;SDS011;65265;53.200;6.080;2023-10-08T03:34:20;1.00;;;0.00;;
76433;SDS011;65265;53.200;6.080;2023-10-08T03:39:17;1.42;;;0.47;;
76433;SDS011;65265;53.200;6.080;2023-10-08T03:44:11;1.23;;;0.10;;
76433;SDS011;65265;53.200;6.080;2023-10-08T03:49:03;0.30;;;0.13;;
76433;SDS011;65265;53.200;6.080;2023-10-08T03:53:56;1.02;;;0.55;;
76433;SDS011;65265;53.200;6.080;2023-10-08T03:59:05;1.42;;;0.52;;
76433;SDS011;65265;53.200;6.080;2023-10-08T04:04:05;1.00;;;0.30;;
76433;SDS011;65265;53.200;6.080;2023-10-08T04:09:02;0.28;;;0.00;;
76433;SDS011;65265;53.200;6.080;2023-10-08T04:14:06;1.58;;;0.30;;
76433;SDS011;65265;53.200;6.080;2023-10-08T04:18:57;0.90;;;0.32;;
76433;SDS011;65265;53.200;6.080;2023-10-08T04:23:54;1.95;;;0.10;;
76433;SDS011;65265;53.200;6.080;2023-10-08T04:28:47;1.30;;;0.47;;
76433;SDS011;65265;53.200;6.080;2023-10-08T04:33:38;0.77;;;0.35;;
76433;SDS011;65265;53.200;6.080;2023-10-08T04:38:30;0.95;;;0.20;;
76433;SDS011;65265;53.200;6.080;2023-10-08T04:43:31;4.88;;;0.35;;
76433;SDS011;65265;53.200;6.080;2023-10-08T04:48:22;1.50;;;0.10;;
76433;SDS011;65265;53.200;6.080;2023-10-08T04:53:14;1.35;;;0.13;;
76433;SDS011;65265;53.200;6.080;2023-10-08T04:58:06;1.55;;;0.17;;
76433;SDS011;65265;53.200;6.080;2023-10-08T05:03:04;1.52;;;0.30;;
76433;SDS011;65265;53.200;6.080;2023-10-08T05:08:03;0.63;;;0.20;;
76433;SDS011;65265;53.200;6.080;2023-10-08T05:13:18;0.60;;;0.22;;
76433;SDS011;65265;53.200;6.080;2023-10-08T05:18:22;2.38;;;0.10;;
76433;SDS011;65265;53.200;6.080;2023-10-08T05:23:28;2.22;;;0.20;;
76433;SDS011;65265;53.200;6.080;2023-10-08T05:28:58;1.30;;;0.10;;
76433;SDS011;65265;53.200;6.080;2023-10-08T05:34:15;2.22;;;0.10;;
76433;SDS011;65265;53.200;6.080;2023-10-08T05:39:22;3.53;;;0.10;;
76433;SDS011;65265;53.200;6.080;2023-10-08T05:44:30;4.18;;;0.40;;
76433;SDS011;65265;53.200;6.080;2023-10-08T05:49:31;3.03;;;0.20;;
76433;SDS011;65265;53.200;6.080;2023-10-08T05:54:44;1.88;;;0.35;;
76433;SDS011;65265;53.200;6.080;2023-10-08T05:59:58;2.85;;;0.40;;
76433;SDS011;65265;53.200;6.080;2023-10-08T06:05:06;1.23;;;0.10;;
76433;SDS011;65265;53.200;6.080;2023-10-08T06:10:10;2.58;;;0.30;;
76433;SDS011;65265;53.200;6.080;2023-10-08T06:15:24;2.58;;;0.22;;
76433;SDS011;65265;53.200;6.080;2023-10-08T06:20:36;2.22;;;0.82;;
76433;SDS011;65265;53.200;6.080;2023-10-08T06:25:30;0.80;;;0.20;;
76433;SDS011;65265;53.200;6.080;2023-10-08T06:30:22;1.92;;;0.40;;
76433;SDS011;65265;53.200;6.080;2023-10-08T06:35:19;1.77;;;0.30;;
76433;SDS011;65265;53.200;6.080;2023-10-08T06:40:17;1.00;;;0.20;;
76433;SDS011;65265;53.200;6.080;2023-10-08T06:45:22;3.10;;;0.40;;
76433;SDS011;65265;53.200;6.080;2023-10-08T06:50:18;1.88;;;0.20;;
76433;SDS011;65265;53.200;6.080;2023-10-08T06:55:11;3.88;;;0.10;;
76433;SDS011;65265;53.200;6.080;2023-10-08T07:00:10;2.30;;;0.25;;
76433;SDS011;65265;53.200;6.080;2023-10-08T07:05:23;3.15;;;0.57;;
76433;SDS011;65265;53.200;6.080;2023-10-08T07:10:17;1.35;;;0.38;;
76433;SDS011;65265;53.200;6.080;2023-10-08T07:15:11;4.40;;;0.38;;
76433;SDS011;65265;53.200;6.080;2023-10-08T07:20:04;2.38;;;0.20;;
76433;SDS011;65265;53.200;6.080;2023-10-08T07:25:04;1.17;;;0.22;;
76433;SDS011;65265;53.200;6.080;2023-10-08T07:29:58;1.60;;;0.45;;
76433;SDS011;65265;53.200;6.080;2023-10-08T07:34:54;2.60;;;0.20;;
76433;SDS011;65265;53.200;6.080;2023-10-08T07:40:05;3.33;;;0.50;;
76433;SDS011;65265;53.200;6.080;2023-10-08T07:45:00;3.72;;;0.22;;
76433;SDS011;65265;53.200;6.080;2023-10-08T07:49:56;5.15;;;0.68;;
76433;SDS011;65265;53.200;6.080;2023-10-08T07:54:48;3.70;;;0.80;;
76433;SDS011;65265;53.200;6.080;2023-10-08T07:59:41;3.95;;;0.40;;
76433;SDS011;65265;53.200;6.080;2023-10-08T08:04:36;3.70;;;0.40;;
76433;SDS011;65265;53.200;6.080;2023-10-08T08:09:29;3.13;;;0.68;;
76433;SDS011;65265;53.200;6.080;2023-10-08T08:14:25;3.95;;;0.45;;
76433;SDS011;65265;53.200;6.080;2023-10-08T08:19:19;3.50;;;0.20;;
76433;SDS011;65265;53.200;6.080;2023-10-08T08:24:14;2.35;;;0.63;;
76433;SDS011;65265;53.200;6.080;2023-10-08T08:29:20;4.40;;;0.65;;
76433;SDS011;65265;53.200;6.080;2023-10-08T08:34:14;3.72;;;0.30;;
76433;SDS011;65265;53.200;6.080;2023-10-08T08:39:09;3.90;;;0.60;;
76433;SDS011;65265;53.200;6.080;2023-10-08T08:44:01;1.25;;;0.00;;
76433;SDS011;65265;53.200;6.080;2023-10-08T08:49:00;2.08;;;0.30;;
76433;SDS011;65265;53.200;6.080;2023-10-08T08:53:54;3.90;;;0.30;;
76433;SDS011;65265;53.200;6.080;2023-10-08T08:58:45;3.80;;;0.47;;
76433;SDS011;65265;53.200;6.080;2023-10-08T09:03:39;0.73;;;0.13;;
76433;SDS011;65265;53.200;6.080;2023-10-08T09:08:35;2.80;;;0.40;;
76433;SDS011;65265;53.200;6.080;2023-10-08T09:13:27;3.25;;;0.40;;
76433;SDS011;65265;53.200;6.080;2023-10-08T09:18:20;2.38;;;0.38;;
76433;SDS011;65265;53.200;6.080;2023-10-08T09:23:13;3.13;;;0.65;;
76433;SDS011;65265;53.200;6.080;2023-10-08T09:28:09;2.50;;;0.40;;
76433;SDS011;65265;53.200;6.080;2023-10-08T09:33:04;3.38;;;0.25;;
76433;SDS011;65265;53.200;6.080;2023-10-08T09:37:56;1.15;;;0.30;;
76433;SDS011;65265;53.200;6.080;2023-10-08T09:42:48;1.70;;;0.22;;
76433;SDS011;65265;53.200;6.080;2023-10-08T09:47:51;3.45;;;0.10;;
76433;SDS011;65265;53.200;6.080;2023-10-08T09:52:48;5.97;;;0.32;;
76433;SDS011;65265;53.200;6.080;2023-10-08T09:57:46;4.05;;;0.40;;
76433;SDS011;65265;53.200;6.080;2023-10-08T10:02:42;3.95;;;0.20;;
76433;SDS011;65265;53.200;6.080;2023-10-08T10:07:34;1.13;;;0.20;;
76433;SDS011;65265;53.200;6.080;2023-10-08T10:12:26;3.35;;;0.10;;
76433;SDS011;65265;53.200;6.080;2023-10-08T10:17:19;4.47;;;0.10;;
76433;SDS011;65265;53.200;6.080;2023-10-08T10:22:14;2.65;;;0.20;;
76433;SDS011;65265;53.200;6.080;2023-10-08T10:27:19;9.18;;;0.20;;
76433;SDS011;65265;53.200;6.080;2023-10-08T10:32:11;6.22;;;0.30;;
76433;SDS011;65265;53.200;6.080;2023-10-08T10:37:05;4.75;;;0.45;;
76433;SDS011;65265;53.200;6.080;2023-10-08T10:42:01;1.75;;;0.28;;
76433;SDS011;65265;53.200;6.080;2023-10-08T10:46:56;3.45;;;0.25;;
76433;SDS011;65265;53.200;6.080;2023-10-08T10:52:02;5.57;;;0.40;;
76433;SDS011;65265;53.200;6.080;2023-10-08T10:56:56;7.13;;;0.20;;
76433;SDS011;65265;53.200;6.080;2023-10-08T11:01:56;1.95;;;0.10;;
76433;SDS011;65265;53.200;6.080;2023-10-08T11:06:57;2.13;;;0.10;;
76433;SDS011;65265;53.200;6.080;2023-10-08T11:11:50;5.68;;;0.57;;
76433;SDS011;65265;53.200;6.080;2023-10-08T11:16:44;3.50;;;0.40;;
76433;SDS011;65265;53.200;6.080;2023-10-08T11:21:49;4.10;;;0.50;;
76433;SDS011;65265;53.200;6.080;2023-10-08T11:26:41;3.70;;;0.30;;
76433;SDS011;65265;53.200;6.080;2023-10-08T11:36:43;4.15;;;0.68;;
76433;SDS011;65265;53.200;6.080;2023-10-08T11:41:44;3.83;;;0.50;;
76433;SDS011;65265;53.200;6.080;2023-10-08T11:46:46;4.60;;;0.43;;
76433;SDS011;65265;53.200;6.080;2023-10-08T11:51:41;5.07;;;0.52;;
76433;SDS011;65265;53.200;6.080;2023-10-08T11:56:33;2.55;;;0.32;;
76433;SDS011;65265;53.200;6.080;2023-10-08T12:01:26;1.65;;;0.22;;
76433;SDS011;65265;53.200;6.080;2023-10-08T12:06:18;3.40;;;0.22;;
76433;SDS011;65265;53.200;6.080;2023-10-08T12:11:11;3.63;;;0.20;;
76433;SDS011;65265;53.200;6.080;2023-10-08T12:16:03;2.35;;;0.63;;
76433;SDS011;65265;53.200;6.080;2023-10-08T12:20:59;7.80;;;1.75;;
76433;SDS011;65265;53.200;6.080;2023-10-08T12:25:51;7.30;;;0.70;;
76433;SDS011;65265;53.200;6.080;2023-10-08T12:30:45;6.78;;;0.20;;
76433;SDS011;65265;53.200;6.080;2023-10-08T12:35:39;5.40;;;0.60;;
76433;SDS011;65265;53.200;6.080;2023-10-08T12:45:32;6.05;;;0.82;;
76433;SDS011;65265;53.200;6.080;2023-10-08T12:50:23;2.15;;;0.03;;
76433;SDS011;65265;53.200;6.080;2023-10-08T12:55:19;2.25;;;0.10;;
76433;SDS011;65265;53.200;6.080;2023-10-08T13:00:18;2.42;;;0.30;;
76433;SDS011;65265;53.200;6.080;2023-10-08T13:05:13;4.30;;;0.20;;
76433;SDS011;65265;53.200;6.080;2023-10-08T13:10:06;3.13;;;0.10;;
76433;SDS011;65265;53.200;6.080;2023-10-08T13:15:01;2.47;;;0.03;;
76433;SDS011;65265;53.200;6.080;2023-10-08T13:19:58;4.72;;;0.40;;
76433;SDS011;65265;53.200;6.080;2023-10-08T13:24:49;3.08;;;0.40;;
76433;SDS011;65265;53.200;6.080;2023-10-08T13:29:41;3.75;;;0.10;;
76433;SDS011;65265;53.200;6.080;2023-10-08T13:34:33;2.28;;;0.40;;
76433;SDS011;65265;53.200;6.080;2023-10-08T13:39:26;2.67;;;0.35;;
76433;SDS011;65265;53.200;6.080;2023-10-08T13:44:18;2.97;;;0.73;;
76433;SDS011;65265;53.200;6.080;2023-10-08T13:49:18;3.72;;;0.08;;
76433;SDS011;65265;53.200;6.080;2023-10-08T13:54:10;1.02;;;0.05;;
76433;SDS011;65265;53.200;6.080;2023-10-08T13:59:03;2.80;;;0.32;;
76433;SDS011;65265;53.200;6.080;2023-10-08T14:04:01;4.30;;;0.20;;
76433;SDS011;65265;53.200;6.080;2023-10-08T14:08:56;3.50;;;0.22;;
76433;SDS011;65265;53.200;6.080;2023-10-08T14:13:47;0.93;;;0.13;;
76433;SDS011;65265;53.200;6.080;2023-10-08T14:18:40;6.15;;;0.77;;
76433;SDS011;65265;53.200;6.080;2023-10-08T14:23:32;3.10;;;0.35;;
76433;SDS011;65265;53.200;6.080;2023-10-08T14:28:28;2.65;;;0.30;;
76433;SDS011;65265;53.200;6.080;2023-10-08T14:33:31;2.13;;;0.32;;
76433;SDS011;65265;53.200;6.080;2023-10-08T14:38:33;1.50;;;0.30;;
76433;SDS011;65265;53.200;6.080;2023-10-08T14:43:42;5.43;;;0.20;;
76433;SDS011;65265;53.200;6.080;2023-10-08T14:48:33;7.00;;;0.55;;
76433;SDS011;65265;53.200;6.080;2023-10-08T14:53:26;3.35;;;0.10;;
76433;SDS011;65265;53.200;6.080;2023-10-08T14:58:19;4.82;;;0.43;;
76433;SDS011;65265;53.200;6.080;2023-10-08T15:03:12;1.20;;;0.10;;
76433;SDS011;65265;53.200;6.080;2023-10-08T15:08:04;3.65;;;0.10;;
76433;SDS011;65265;53.200;6.080;2023-10-08T15:12:59;2.22;;;0.00;;
76433;SDS011;65265;53.200;6.080;2023-10-08T15:17:53;0.85;;;0.00;;
76433;SDS011;65265;53.200;6.080;2023-10-08T15:22:46;1.17;;;0.35;;
76433;SDS011;65265;53.200;6.080;2023-10-08T15:27:38;2.70;;;0.13;;
76433;SDS011;65265;53.200;6.080;2023-10-08T15:32:30;2.08;;;0.30;;
76433;SDS011;65265;53.200;6.080;2023-10-08T15:37:24;2.25;;;0.40;;
76433;SDS011;65265;53.200;6.080;2023-10-08T15:42:16;3.35;;;0.80;;
76433;SDS011;65265;53.200;6.080;2023-10-08T15:47:08;4.22;;;0.28;;
76433;SDS011;65265;53.200;6.080;2023-10-08T15:51:59;3.00;;;0.10;;
76433;SDS011;65265;53.200;6.080;2023-10-08T15:56:52;3.75;;;0.50;;
76433;SDS011;65265;53.200;6.080;2023-10-08T16:01:44;4.07;;;0.68;;
76433;SDS011;65265;53.200;6.080;2023-10-08T16:06:36;4.50;;;0.22;;
76433;SDS011;65265;53.200;6.080;2023-10-08T16:11:28;2.40;;;0.40;;
76433;SDS011;65265;53.200;6.080;2023-10-08T16:16:22;1.80;;;0.03;;
76433;SDS011;65265;53.200;6.080;2023-10-08T16:21:13;1.90;;;0.10;;
76433;SDS011;65265;53.200;6.080;2023-10-08T16:26:07;5.35;;;0.30;;
76433;SDS011;65265;53.200;6.080;2023-10-08T16:31:00;2.85;;;0.17;;
76433;SDS011;65265;53.200;6.080;2023-10-08T16:35:55;0.93;;;0.00;;
76433;SDS011;65265;53.200;6.080;2023-10-08T16:40:49;5.80;;;0.20;;
76433;SDS011;65265;53.200;6.080;2023-10-08T16:45:41;1.02;;;0.03;;
76433;SDS011;65265;53.200;6.080;2023-10-08T16:50:34;2.72;;;0.20;;
76433;SDS011;65265;53.200;6.080;2023-10-08T16:55:27;1.92;;;0.65;;
76433;SDS011;65265;53.200;6.080;2023-10-08T17:00:18;1.83;;;0.25;;
76433;SDS011;65265;53.200;6.080;2023-10-08T17:05:11;2.50;;;0.38;;
76433;SDS011;65265;53.200;6.080;2023-10-08T17:10:05;3.90;;;0.10;;
76433;SDS011;65265;53.200;6.080;2023-10-08T17:14:59;3.97;;;0.30;;
76433;SDS011;65265;53.200;6.080;2023-10-08T17:19:51;2.15;;;0.17;;
76433;SDS011;65265;53.200;6.080;2023-10-08T17:24:43;1.67;;;0.17;;
76433;SDS011;65265;53.200;6.080;2023-10-08T17:29:35;4.50;;;0.40;;
76433;SDS011;65265;53.200;6.080;2023-10-08T17:34:28;2.22;;;0.10;;
76433;SDS011;65265;53.200;6.080;2023-10-08T17:39:21;2.42;;;0.17;;
76433;SDS011;65265;53.200;6.080;2023-10-08T17:44:13;4.00;;;0.77;;
76433;SDS011;65265;53.200;6.080;2023-10-08T17:49:04;2.03;;;0.10;;
76433;SDS011;65265;53.200;6.080;2023-10-08T17:53:58;1.70;;;0.15;;
76433;SDS011;65265;53.200;6.080;2023-10-08T17:58:51;1.30;;;0.45;;
76433;SDS011;65265;53.200;6.080;2023-10-08T18:03:43;5.95;;;0.32;;
76433;SDS011;65265;53.200;6.080;2023-10-08T18:08:37;2.70;;;0.80;;
76433;SDS011;65265;53.200;6.080;2023-10-08T18:13:30;5.88;;;1.38;;
76433;SDS011;65265;53.200;6.080;2023-10-08T18:18:22;2.78;;;0.40;;
76433;SDS011;65265;53.200;6.080;2023-10-08T18:23:15;2.28;;;0.30;;
76433;SDS011;65265;53.200;6.080;2023-10-08T18:28:09;2.67;;;0.40;;
76433;SDS011;65265;53.200;6.080;2023-10-08T18:33:05;4.03;;;0.13;;
76433;SDS011;65265;53.200;6.080;2023-10-08T18:37:57;2.40;;;0.38;;
76433;SDS011;65265;53.200;6.080;2023-10-08T18:42:50;2.33;;;0.55;;
76433;SDS011;65265;53.200;6.080;2023-10-08T18:47:43;2.92;;;0.85;;
76433;SDS011;65265;53.200;6.080;2023-10-08T18:52:36;4.80;;;0.85;;
76433;SDS011;65265;53.200;6.080;2023-10-08T18:57:28;5.57;;;0.30;;
76433;SDS011;65265;53.200;6.080;2023-10-08T19:02:20;2.50;;;0.25;;
76433;SDS011;65265;53.200;6.080;2023-10-08T19:07:12;4.00;;;0.30;;
76433;SDS011;65265;53.200;6.080;2023-10-08T19:12:05;3.72;;;0.40;;
76433;SDS011;65265;53.200;6.080;2023-10-08T19:16:57;4.13;;;0.60;;
76433;SDS011;65265;53.200;6.080;2023-10-08T19:21:49;2.63;;;0.50;;
76433;SDS011;65265;53.200;6.080;2023-10-08T19:26:40;2.15;;;0.60;;
76433;SDS011;65265;53.200;6.080;2023-10-08T19:31:33;6.18;;;2.85;;
76433;SDS011;65265;53.200;6.080;2023-10-08T19:36:25;4.75;;;0.73;;
76433;SDS011;65265;53.200;6.080;2023-10-08T19:41:18;2.75;;;0.68;;
76433;SDS011;65265;53.200;6.080;2023-10-08T19:46:12;3.10;;;0.82;;
76433;SDS011;65265;53.200;6.080;2023-10-08T19:51:08;4.45;;;1.10;;
76433;SDS011;65265;53.200;6.080;2023-10-08T19:56:01;3.22;;;0.45;;
76433;SDS011;65265;53.200;6.080;2023-10-08T20:00:56;3.42;;;0.98;;
76433;SDS011;65265;53.200;6.080;2023-10-08T20:05:48;2.70;;;0.82;;
76433;SDS011;65265;53.200;6.080;2023-10-08T20:10:41;3.63;;;1.05;;
76433;SDS011;65265;53.200;6.080;2023-10-08T20:15:34;2.67;;;0.63;;
76433;SDS011;65265;53.200;6.080;2023-10-08T20:20:27;4.35;;;0.98;;
76433;SDS011;65265;53.200;6.080;2023-10-08T20:25:20;2.88;;;0.60;;
76433;SDS011;65265;53.200;6.080;2023-10-08T20:30:16;3.08;;;0.95;;
76433;SDS011;65265;53.200;6.080;2023-10-08T20:35:09;1.90;;;0.80;;
76433;SDS011;65265;53.200;6.080;2023-10-08T20:40:03;5.03;;;1.13;;
76433;SDS011;65265;53.200;6.080;2023-10-08T20:44:56;2.63;;;1.02;;
76433;SDS011;65265;53.200;6.080;2023-10-08T20:49:49;5.70;;;1.10;;
76433;SDS011;65265;53.200;6.080;2023-10-08T20:54:41;3.03;;;1.17;;
76433;SDS011;65265;53.200;6.080;2023-10-08T20:59:32;3.50;;;1.05;;
76433;SDS011;65265;53.200;6.080;2023-10-08T21:04:25;10.82;;;3.10;;
76433;SDS011;65265;53.200;6.080;2023-10-08T21:09:18;4.68;;;0.80;;
76433;SDS011;65265;53.200;6.080;2023-10-08T21:14:10;3.08;;;1.15;;
76433;SDS011;65265;53.200;6.080;2023-10-08T21:19:01;3.05;;;1.02;;
76433;SDS011;65265;53.200;6.080;2023-10-08T21:23:53;3.65;;;1.10;;
76433;SDS011;65265;53.200;6.080;2023-10-08T21:28:46;3.17;;;1.55;;
76433;SDS011;65265;53.200;6.080;2023-10-08T21:33:38;6.32;;;1.45;;
76433;SDS011;65265;53.200;6.080;2023-10-08T21:38:29;2.85;;;0.70;;
76433;SDS011;65265;53.200;6.080;2023-10-08T21:43:22;3.72;;;1.27;;
76433;SDS011;65265;53.200;6.080;2023-10-08T21:48:16;10.05;;;1.63;;
76433;SDS011;65265;53.200;6.080;2023-10-08T21:53:07;3.33;;;1.52;;
76433;SDS011;65265;53.200;6.080;2023-10-08T21:57:59;5.88;;;1.40;;
76433;SDS011;65265;53.200;6.080;2023-10-08T22:02:51;3.15;;;1.58;;
76433;SDS011;65265;53.200;6.080;2023-10-08T22:07:45;5.20;;;1.67;;
76433;SDS011;65265;53.200;6.080;2023-10-08T22:12:38;7.97;;;2.05;;
76433;SDS011;65265;53.200;6.080;2023-10-08T22:17:31;7.25;;;2.15;;
76433;SDS011;65265;53.200;6.080;2023-10-08T22:22:33;4.85;;;1.70;;
76433;SDS011;65265;53.200;6.080;2023-10-08T22:27:28;4.20;;;2.42;;
76433;SDS011;65265;53.200;6.080;2023-10-08T22:32:23;6.15;;;1.30;;
76433;SDS011;65265;53.200;6.080;2023-10-08T22:37:19;8.10;;;1.83;;
76433;SDS011;65265;53.200;6.080;2023-10-08T22:42:22;6.78;;;1.65;;
76433;SDS011;65265;53.200;6.080;2023-10-08T22:47:17;4.20;;;2.33;;
76433;SDS011;65265;53.200;6.080;2023-10-08T22:52:11;7.32;;;1.70;;
76433;SDS011;65265;53.200;6.080;2023-10-08T22:57:05;3.90;;;2.42;;
76433;SDS011;65265;53.200;6.080;2023-10-08T23:01:57;5.97;;;1.55;;
76433;SDS011;65265;53.200;6.080;2023-10-08T23:06:54;4.68;;;2.53;;
76433;SDS011;65265;53.200;6.080;2023-10-08T23:11:46;4.93;;;1.95;;
76433;SDS011;65265;53.200;6.080;2023-10-08T23:16:39;3.53;;;1.40;;
76433;SDS011;65265;53.200;6.080;2023-10-08T23:21:31;6.75;;;1.58;;
76433;SDS011;65265;53.200;6.080;2023-10-08T23:26:27;5.07;;;2.22;;
76433;SDS011;65265;53.200;6.080;2023-10-08T23:31:18;5.55;;;2.00;;
76433;SDS011;65265;53.200;6.080;2023-10-08T23:36:10;5.45;;;1.90;;
76433;SDS011;65265;53.200;6.080;2023-10-08T23:41:04;9.45;;;2.17;;
76433;SDS011;65265;53.200;6.080;2023-10-08T23:46:06;5.57;;;2.20;;
76433;SDS011;65265;53.200;6.080;2023-10-08T23:51:01;7.15;;;3.00;;
76433;SDS011;65265;53.200;6.080;2023-10-08T23:55:54;4.68;;;2.35;;
